Lemmon, South Dakota
Current Conditions -  °F | °C
As of 3:53 PM on Thursday 27 Nov 2014 (Local Time) from KHEI Reporting Station
Overcast Overcast  
Wind Chill: 13°   Ceiling: 9000
Heat Index: 24°   Visibility: 10mi
Dew Point: 19°   Wind: 12mph
Humidity: 81%   Direction: 170°S
Pressure: 29.87"   Gusts: NA
Location:  45.94°N, 102.16°W
Report Text: KHEI 272253Z AUTO 17010KT 10SM OVC090 M04/M07 A2987 RMK AO2 SLP157 T10441072
Loading
Personal Weather Stations






























Interactive Weather Map New forecast layout! Learn more

10-Day Weather Forecast

Advertisements
Track Severe Weather on mobile